sensor_id;sensor_type;location;lat;lon;timestamp;pressure;altitude;pressure_sealevel;temperature;humidity
44313;BME280;38833;51.142;-0.974;2023-07-22T00:02:01;99972.48;;;25.41;30.99
44313;BME280;38833;51.142;-0.974;2023-07-22T00:04:34;99973.53;;;25.67;31.02
44313;BME280;38833;51.142;-0.974;2023-07-22T00:07:08;99975.34;;;25.69;31.00
44313;BME280;38833;51.142;-0.974;2023-07-22T00:09:42;99974.83;;;25.68;31.03
44313;BME280;38833;51.142;-0.974;2023-07-22T00:12:15;99974.31;;;25.71;31.03
44313;BME280;38833;51.142;-0.974;2023-07-22T00:14:49;99972.81;;;25.93;31.07
44313;BME280;38833;51.142;-0.974;2023-07-22T00:17:22;99970.06;;;25.73;31.06
44313;BME280;38833;51.142;-0.974;2023-07-22T00:19:56;99966.15;;;25.66;31.17
44313;BME280;38833;51.142;-0.974;2023-07-22T00:22:29;99965.25;;;25.39;31.17
44313;BME280;38833;51.142;-0.974;2023-07-22T00:25:03;99960.41;;;25.67;31.17
44313;BME280;38833;51.142;-0.974;2023-07-22T00:27:37;99958.31;;;25.66;31.19
44313;BME280;38833;51.142;-0.974;2023-07-22T00:30:11;99955.58;;;25.70;31.17
44313;BME280;38833;51.142;-0.974;2023-07-22T00:32:44;99953.98;;;25.70;31.20
44313;BME280;38833;51.142;-0.974;2023-07-22T00:35:18;99950.43;;;25.69;31.23
44313;BME280;38833;51.142;-0.974;2023-07-22T00:37:51;99947.76;;;25.47;31.22
44313;BME280;38833;51.142;-0.974;2023-07-22T00:40:25;99943.19;;;25.73;31.20
44313;BME280;38833;51.142;-0.974;2023-07-22T00:42:58;99939.35;;;25.68;31.24
44313;BME280;38833;51.142;-0.974;2023-07-22T00:45:32;99936.29;;;25.40;31.29
44313;BME280;38833;51.142;-0.974;2023-07-22T00:48:05;99932.37;;;25.67;31.33
44313;BME280;38833;51.142;-0.974;2023-07-22T00:50:40;99932.26;;;25.67;31.34
44313;BME280;38833;51.142;-0.974;2023-07-22T00:53:14;99928.96;;;25.65;31.36
44313;BME280;38833;51.142;-0.974;2023-07-22T00:55:47;99928.21;;;25.65;31.39
44313;BME280;38833;51.142;-0.974;2023-07-22T00:58:21;99930.37;;;25.66;31.35
44313;BME280;38833;51.142;-0.974;2023-07-22T01:00:54;99929.37;;;25.65;31.40
44313;BME280;38833;51.142;-0.974;2023-07-22T01:03:28;99930.09;;;25.39;31.39
44313;BME280;38833;51.142;-0.974;2023-07-22T01:06:02;99929.49;;;25.66;31.43
44313;BME280;38833;51.142;-0.974;2023-07-22T01:08:35;99927.85;;;25.67;31.39
44313;BME280;38833;51.142;-0.974;2023-07-22T01:11:09;99923.40;;;25.68;31.39
44313;BME280;38833;51.142;-0.974;2023-07-22T01:13:42;99921.19;;;25.63;31.44
44313;BME280;38833;51.142;-0.974;2023-07-22T01:16:16;99916.09;;;25.66;31.45
44313;BME280;38833;51.142;-0.974;2023-07-22T01:18:49;99915.44;;;25.67;31.43
44313;BME280;38833;51.142;-0.974;2023-07-22T01:21:23;99911.82;;;25.69;31.41
44313;BME280;38833;51.142;-0.974;2023-07-22T01:23:58;99908.70;;;25.68;31.43
44313;BME280;38833;51.142;-0.974;2023-07-22T01:26:32;99903.97;;;25.65;31.46
44313;BME280;38833;51.142;-0.974;2023-07-22T01:29:05;99901.08;;;25.64;31.49
44313;BME280;38833;51.142;-0.974;2023-07-22T01:31:39;99899.38;;;25.61;31.49
44313;BME280;38833;51.142;-0.974;2023-07-22T01:34:12;99897.49;;;25.32;31.53
44313;BME280;38833;51.142;-0.974;2023-07-22T01:36:46;99902.08;;;25.57;31.56
44313;BME280;38833;51.142;-0.974;2023-07-22T01:39:20;99901.19;;;25.31;31.58
44313;BME280;38833;51.142;-0.974;2023-07-22T01:41:53;99899.67;;;25.63;31.52
44313;BME280;38833;51.142;-0.974;2023-07-22T01:44:26;99899.88;;;25.57;31.56
44313;BME280;38833;51.142;-0.974;2023-07-22T01:47:02;99897.64;;;25.55;31.61
44313;BME280;38833;51.142;-0.974;2023-07-22T01:49:35;99894.58;;;25.53;31.65
44313;BME280;38833;51.142;-0.974;2023-07-22T01:52:08;99889.34;;;25.54;31.62
44313;BME280;38833;51.142;-0.974;2023-07-22T01:54:42;99890.89;;;25.77;31.62
44313;BME280;38833;51.142;-0.974;2023-07-22T01:57:15;99890.05;;;25.30;31.61
44313;BME280;38833;51.142;-0.974;2023-07-22T01:59:48;99884.80;;;25.55;31.61
44313;BME280;38833;51.142;-0.974;2023-07-22T02:02:22;99882.38;;;25.57;31.57
44313;BME280;38833;51.142;-0.974;2023-07-22T02:04:55;99876.89;;;25.56;31.59
44313;BME280;38833;51.142;-0.974;2023-07-22T02:07:28;99872.99;;;25.51;31.68
44313;BME280;38833;51.142;-0.974;2023-07-22T02:10:02;99874.29;;;25.53;31.62
44313;BME280;38833;51.142;-0.974;2023-07-22T02:12:35;99873.68;;;25.51;31.68
44313;BME280;38833;51.142;-0.974;2023-07-22T02:15:10;99875.90;;;25.51;31.66
44313;BME280;38833;51.142;-0.974;2023-07-22T02:17:43;99870.87;;;25.53;31.65
44313;BME280;38833;51.142;-0.974;2023-07-22T02:20:17;99870.18;;;25.50;31.68
44313;BME280;38833;51.142;-0.974;2023-07-22T02:22:50;99869.14;;;25.49;31.70
44313;BME280;38833;51.142;-0.974;2023-07-22T02:25:24;99866.69;;;25.49;31.70
44313;BME280;38833;51.142;-0.974;2023-07-22T02:27:57;99861.62;;;25.43;31.76
44313;BME280;38833;51.142;-0.974;2023-07-22T02:30:30;99859.52;;;25.45;31.74
44313;BME280;38833;51.142;-0.974;2023-07-22T02:33:06;99856.71;;;25.45;31.72
44313;BME280;38833;51.142;-0.974;2023-07-22T02:35:41;99854.60;;;25.44;31.73
44313;BME280;38833;51.142;-0.974;2023-07-22T02:38:15;99854.02;;;25.45;31.71
44313;BME280;38833;51.142;-0.974;2023-07-22T02:40:48;99852.40;;;25.65;31.77
44313;BME280;38833;51.142;-0.974;2023-07-22T02:43:21;99852.86;;;25.43;31.73
44313;BME280;38833;51.142;-0.974;2023-07-22T02:45:55;99856.71;;;25.39;31.77
44313;BME280;38833;51.142;-0.974;2023-07-22T02:48:29;99857.50;;;25.85;31.76
44313;BME280;38833;51.142;-0.974;2023-07-22T02:51:04;99856.73;;;25.43;31.74
44313;BME280;38833;51.142;-0.974;2023-07-22T02:53:37;99856.36;;;25.37;31.77
44313;BME280;38833;51.142;-0.974;2023-07-22T02:56:11;99855.50;;;25.39;31.76
44313;BME280;38833;51.142;-0.974;2023-07-22T02:58:44;99854.62;;;25.38;31.74
44313;BME280;38833;51.142;-0.974;2023-07-22T03:01:17;99851.56;;;25.34;31.79
44313;BME280;38833;51.142;-0.974;2023-07-22T03:03:51;99848.40;;;25.58;31.76
44313;BME280;38833;51.142;-0.974;2023-07-22T03:06:24;99846.86;;;25.33;31.80
44313;BME280;38833;51.142;-0.974;2023-07-22T03:08:57;99845.51;;;25.35;31.76
44313;BME280;38833;51.142;-0.974;2023-07-22T03:11:31;99845.40;;;25.36;31.75
44313;BME280;38833;51.142;-0.974;2023-07-22T03:14:04;99844.42;;;25.35;31.77
44313;BME280;38833;51.142;-0.974;2023-07-22T03:16:38;99844.13;;;25.27;31.88
44313;BME280;38833;51.142;-0.974;2023-07-22T03:19:11;99842.99;;;25.33;31.82
44313;BME280;38833;51.142;-0.974;2023-07-22T03:21:44;99838.77;;;25.32;31.80
44313;BME280;38833;51.142;-0.974;2023-07-22T03:24:18;99838.27;;;25.77;31.79
44313;BME280;38833;51.142;-0.974;2023-07-22T03:26:51;99837.53;;;25.30;31.81
44313;BME280;38833;51.142;-0.974;2023-07-22T03:29:25;99835.06;;;25.23;31.92
44313;BME280;38833;51.142;-0.974;2023-07-22T03:31:58;99831.07;;;25.74;31.82
44313;BME280;38833;51.142;-0.974;2023-07-22T03:34:32;99827.69;;;25.47;31.87
44313;BME280;38833;51.142;-0.974;2023-07-22T03:37:05;99827.26;;;25.26;31.85
44313;BME280;38833;51.142;-0.974;2023-07-22T03:39:39;99826.21;;;25.25;31.86
44313;BME280;38833;51.142;-0.974;2023-07-22T03:42:12;99825.80;;;25.20;31.94
44313;BME280;38833;51.142;-0.974;2023-07-22T03:44:45;99821.96;;;25.45;31.89
44313;BME280;38833;51.142;-0.974;2023-07-22T03:47:19;99818.81;;;25.25;31.86
44313;BME280;38833;51.142;-0.974;2023-07-22T03:49:53;99820.66;;;25.45;31.89
44313;BME280;38833;51.142;-0.974;2023-07-22T03:52:26;99820.96;;;25.47;31.84
44313;BME280;38833;51.142;-0.974;2023-07-22T03:55:00;99818.35;;;25.43;31.95
44313;BME280;38833;51.142;-0.974;2023-07-22T03:57:34;99814.99;;;25.23;31.86
44313;BME280;38833;51.142;-0.974;2023-07-22T04:00:08;99814.42;;;25.42;31.91
44313;BME280;38833;51.142;-0.974;2023-07-22T04:02:42;99811.96;;;25.44;31.90
44313;BME280;38833;51.142;-0.974;2023-07-22T04:05:15;99813.20;;;25.66;31.86
44313;BME280;38833;51.142;-0.974;2023-07-22T04:07:49;99809.78;;;25.21;31.91
44313;BME280;38833;51.142;-0.974;2023-07-22T04:10:22;99810.56;;;25.44;31.89
44313;BME280;38833;51.142;-0.974;2023-07-22T04:12:55;99808.00;;;25.44;31.88
44313;BME280;38833;51.142;-0.974;2023-07-22T04:15:30;99807.20;;;25.40;31.93
44313;BME280;38833;51.142;-0.974;2023-07-22T04:18:03;99807.31;;;25.19;31.93
44313;BME280;38833;51.142;-0.974;2023-07-22T04:20:36;99807.76;;;25.19;31.85
44313;BME280;38833;51.142;-0.974;2023-07-22T04:23:10;99802.98;;;25.38;31.93
44313;BME280;38833;51.142;-0.974;2023-07-22T04:25:44;99802.60;;;25.40;31.92
44313;BME280;38833;51.142;-0.974;2023-07-22T04:28:17;99805.12;;;25.19;31.88
44313;BME280;38833;51.142;-0.974;2023-07-22T04:30:59;99802.79;;;25.14;31.94
44313;BME280;38833;51.142;-0.974;2023-07-22T04:33:33;99797.97;;;25.16;31.94
44313;BME280;38833;51.142;-0.974;2023-07-22T04:36:06;99795.62;;;25.39;31.92
44313;BME280;38833;51.142;-0.974;2023-07-22T04:38:39;99797.02;;;25.36;31.94
44313;BME280;38833;51.142;-0.974;2023-07-22T04:41:13;99797.71;;;25.12;31.95
44313;BME280;38833;51.142;-0.974;2023-07-22T04:43:46;99798.56;;;25.11;31.96
44313;BME280;38833;51.142;-0.974;2023-07-22T04:46:19;99796.47;;;25.53;31.97
44313;BME280;38833;51.142;-0.974;2023-07-22T04:48:54;99795.94;;;25.53;32.01
44313;BME280;38833;51.142;-0.974;2023-07-22T04:51:27;99798.69;;;25.29;32.00
44313;BME280;38833;51.142;-0.974;2023-07-22T04:54:00;99799.02;;;25.04;32.04
44313;BME280;38833;51.142;-0.974;2023-07-22T04:56:34;99800.70;;;25.02;32.05
44313;BME280;38833;51.142;-0.974;2023-07-22T04:59:07;99796.03;;;25.23;32.10
44313;BME280;38833;51.142;-0.974;2023-07-22T05:01:41;99796.05;;;25.27;32.04
44313;BME280;38833;51.142;-0.974;2023-07-22T05:04:14;99796.22;;;25.46;32.02
44313;BME280;38833;51.142;-0.974;2023-07-22T05:06:48;99797.96;;;25.28;31.98
44313;BME280;38833;51.142;-0.974;2023-07-22T05:09:21;99800.82;;;25.02;32.05
44313;BME280;38833;51.142;-0.974;2023-07-22T05:11:54;99801.61;;;25.04;31.97
44313;BME280;38833;51.142;-0.974;2023-07-22T05:14:28;99799.05;;;25.50;32.00
44313;BME280;38833;51.142;-0.974;2023-07-22T05:17:01;99796.25;;;25.48;32.01
44313;BME280;38833;51.142;-0.974;2023-07-22T05:19:35;99794.67;;;25.45;32.03
44313;BME280;38833;51.142;-0.974;2023-07-22T05:22:08;99792.35;;;25.23;32.08
44313;BME280;38833;51.142;-0.974;2023-07-22T05:24:41;99787.19;;;25.40;32.15
44313;BME280;38833;51.142;-0.974;2023-07-22T05:27:15;99780.20;;;25.42;32.08
44313;BME280;38833;51.142;-0.974;2023-07-22T05:29:49;99779.38;;;25.19;32.13
44313;BME280;38833;51.142;-0.974;2023-07-22T05:32:22;99780.96;;;25.21;32.06
44313;BME280;38833;51.142;-0.974;2023-07-22T05:34:56;99783.40;;;25.20;32.06
44313;BME280;38833;51.142;-0.974;2023-07-22T05:37:29;99785.22;;;24.92;32.13
44313;BME280;38833;51.142;-0.974;2023-07-22T05:40:03;99783.89;;;25.21;32.06
44313;BME280;38833;51.142;-0.974;2023-07-22T05:42:37;99783.87;;;25.16;32.10
44313;BME280;38833;51.142;-0.974;2023-07-22T05:45:10;99782.83;;;25.18;32.07
44313;BME280;38833;51.142;-0.974;2023-07-22T05:47:44;99780.09;;;24.94;32.12
44313;BME280;38833;51.142;-0.974;2023-07-22T05:50:17;99776.95;;;25.17;32.07
44313;BME280;38833;51.142;-0.974;2023-07-22T05:52:50;99776.21;;;24.91;32.15
44313;BME280;38833;51.142;-0.974;2023-07-22T05:55:24;99774.83;;;24.93;32.13
44313;BME280;38833;51.142;-0.974;2023-07-22T05:57:57;99772.44;;;25.11;32.16
44313;BME280;38833;51.142;-0.974;2023-07-22T06:00:32;99769.82;;;25.30;32.20
44313;BME280;38833;51.142;-0.974;2023-07-22T06:03:05;99774.47;;;24.86;32.19
44313;BME280;38833;51.142;-0.974;2023-07-22T06:05:39;99775.95;;;25.33;32.19
44313;BME280;38833;51.142;-0.974;2023-07-22T06:08:12;99779.83;;;25.31;32.24
44313;BME280;38833;51.142;-0.974;2023-07-22T06:10:46;99767.98;;;25.09;32.22
44313;BME280;38833;51.142;-0.974;2023-07-22T06:13:19;99767.44;;;25.14;32.18
44313;BME280;38833;51.142;-0.974;2023-07-22T06:15:53;99760.03;;;25.28;32.26
44313;BME280;38833;51.142;-0.974;2023-07-22T06:18:26;99758.05;;;24.86;32.20
44313;BME280;38833;51.142;-0.974;2023-07-22T06:20:59;99754.35;;;24.87;32.22
44313;BME280;38833;51.142;-0.974;2023-07-22T06:23:33;99751.74;;;24.90;32.20
44313;BME280;38833;51.142;-0.974;2023-07-22T06:26:07;99752.27;;;24.89;32.21
44313;BME280;38833;51.142;-0.974;2023-07-22T06:28:40;99748.94;;;24.87;32.26
44313;BME280;38833;51.142;-0.974;2023-07-22T06:31:13;99753.36;;;24.82;32.31
44313;BME280;38833;51.142;-0.974;2023-07-22T06:33:47;99757.54;;;25.29;32.33
44313;BME280;38833;51.142;-0.974;2023-07-22T06:36:20;99752.07;;;24.83;32.30
44313;BME280;38833;51.142;-0.974;2023-07-22T06:38:53;99750.73;;;25.07;32.29
44313;BME280;38833;51.142;-0.974;2023-07-22T06:41:27;99752.21;;;25.07;32.30
44313;BME280;38833;51.142;-0.974;2023-07-22T06:44:00;99753.82;;;24.82;32.35
44313;BME280;38833;51.142;-0.974;2023-07-22T06:46:34;99749.19;;;25.28;32.32
44313;BME280;38833;51.142;-0.974;2023-07-22T06:49:08;99746.88;;;25.08;32.30
44313;BME280;38833;51.142;-0.974;2023-07-22T06:51:41;99747.83;;;25.30;32.30
44313;BME280;38833;51.142;-0.974;2023-07-22T06:54:15;99745.34;;;24.83;32.35
44313;BME280;38833;51.142;-0.974;2023-07-22T06:56:48;99739.17;;;24.90;32.31
44313;BME280;38833;51.142;-0.974;2023-07-22T06:59:21;99737.29;;;25.10;32.32
44313;BME280;38833;51.142;-0.974;2023-07-22T07:01:55;99735.96;;;24.86;32.33
44313;BME280;38833;51.142;-0.974;2023-07-22T07:04:28;99731.50;;;25.30;32.31
44313;BME280;38833;51.142;-0.974;2023-07-22T07:07:02;99731.25;;;25.14;32.27
44313;BME280;38833;51.142;-0.974;2023-07-22T07:09:35;99730.49;;;25.15;32.25
44313;BME280;38833;51.142;-0.974;2023-07-22T07:12:09;99728.80;;;25.16;32.20
44313;BME280;38833;51.142;-0.974;2023-07-22T07:14:42;99730.34;;;25.14;32.24
44313;BME280;38833;51.142;-0.974;2023-07-22T07:17:16;99727.21;;;25.41;32.20
44313;BME280;38833;51.142;-0.974;2023-07-22T07:19:49;99726.30;;;25.20;32.20
44313;BME280;38833;51.142;-0.974;2023-07-22T07:22:22;99729.96;;;24.99;32.18
44313;BME280;38833;51.142;-0.974;2023-07-22T07:24:55;99725.74;;;24.99;32.20
44313;BME280;38833;51.142;-0.974;2023-07-22T07:27:29;99731.49;;;25.00;32.17
44313;BME280;38833;51.142;-0.974;2023-07-22T07:30:02;99723.38;;;25.25;32.10
44313;BME280;38833;51.142;-0.974;2023-07-22T07:32:36;99734.68;;;25.26;32.14
44313;BME280;38833;51.142;-0.974;2023-07-22T07:35:09;99731.41;;;25.50;32.14
44313;BME280;38833;51.142;-0.974;2023-07-22T07:37:43;99728.98;;;25.08;32.11
44313;BME280;38833;51.142;-0.974;2023-07-22T07:40:16;99721.30;;;25.11;32.12
44313;BME280;38833;51.142;-0.974;2023-07-22T07:42:49;99720.68;;;25.10;32.10
44313;BME280;38833;51.142;-0.974;2023-07-22T07:45:23;99710.61;;;25.11;32.08
44313;BME280;38833;51.142;-0.974;2023-07-22T07:47:56;99715.52;;;25.08;32.17
44313;BME280;38833;51.142;-0.974;2023-07-22T07:50:29;99717.85;;;25.08;32.14
44313;BME280;38833;51.142;-0.974;2023-07-22T07:53:03;99716.67;;;25.33;32.12
44313;BME280;38833;51.142;-0.974;2023-07-22T07:55:36;99712.48;;;25.11;32.17
44313;BME280;38833;51.142;-0.974;2023-07-22T07:58:10;99709.71;;;25.35;32.11
44313;BME280;38833;51.142;-0.974;2023-07-22T08:00:43;99704.66;;;25.34;32.11
44313;BME280;38833;51.142;-0.974;2023-07-22T08:03:17;99704.58;;;25.37;32.16
44313;BME280;38833;51.142;-0.974;2023-07-22T08:05:50;99703.18;;;25.14;32.16
44313;BME280;38833;51.142;-0.974;2023-07-22T08:08:24;99707.30;;;25.20;32.09
44313;BME280;38833;51.142;-0.974;2023-07-22T08:10:59;99707.53;;;25.40;32.15
44313;BME280;38833;51.142;-0.974;2023-07-22T08:13:33;99703.76;;;25.20;32.11
44313;BME280;38833;51.142;-0.974;2023-07-22T08:16:08;99699.93;;;25.64;32.18
44313;BME280;38833;51.142;-0.974;2023-07-22T08:18:42;99702.38;;;25.20;32.16
44313;BME280;38833;51.142;-0.974;2023-07-22T08:21:16;99704.01;;;25.21;32.18
44313;BME280;38833;51.142;-0.974;2023-07-22T08:23:49;99709.50;;;25.24;32.15
44313;BME280;38833;51.142;-0.974;2023-07-22T08:26:23;99706.96;;;25.25;32.17
44313;BME280;38833;51.142;-0.974;2023-07-22T08:28:56;99703.22;;;25.30;32.10
44313;BME280;38833;51.142;-0.974;2023-07-22T08:31:29;99708.24;;;25.28;32.15
44313;BME280;38833;51.142;-0.974;2023-07-22T08:34:03;99699.86;;;25.27;32.12
44313;BME280;38833;51.142;-0.974;2023-07-22T08:36:37;99696.33;;;25.33;32.10
44313;BME280;38833;51.142;-0.974;2023-07-22T08:39:10;99698.77;;;25.33;32.14
44313;BME280;38833;51.142;-0.974;2023-07-22T08:41:48;99696.12;;;25.33;32.15
44313;BME280;38833;51.142;-0.974;2023-07-22T08:44:23;99697.07;;;25.58;32.09
44313;BME280;38833;51.142;-0.974;2023-07-22T08:46:59;99693.78;;;25.34;32.11
44313;BME280;38833;51.142;-0.974;2023-07-22T08:49:34;99689.68;;;25.37;32.12
44313;BME280;38833;51.142;-0.974;2023-07-22T08:52:08;99682.85;;;25.10;32.12
44313;BME280;38833;51.142;-0.974;2023-07-22T08:54:42;99685.03;;;25.42;32.08
44313;BME280;38833;51.142;-0.974;2023-07-22T08:57:16;99678.30;;;25.44;32.10
44313;BME280;38833;51.142;-0.974;2023-07-22T08:59:50;99676.16;;;25.47;32.10
44313;BME280;38833;51.142;-0.974;2023-07-22T09:02:24;99673.35;;;25.47;32.04
44313;BME280;38833;51.142;-0.974;2023-07-22T09:04:58;99672.54;;;25.44;32.08
44313;BME280;38833;51.142;-0.974;2023-07-22T09:07:31;99668.58;;;25.43;32.10
44313;BME280;38833;51.142;-0.974;2023-07-22T09:10:06;99672.60;;;25.43;32.10
44313;BME280;38833;51.142;-0.974;2023-07-22T09:12:42;99668.33;;;25.45;32.05
44313;BME280;38833;51.142;-0.974;2023-07-22T09:15:16;99668.69;;;25.43;32.10
44313;BME280;38833;51.142;-0.974;2023-07-22T09:17:50;99670.29;;;25.45;32.08
44313;BME280;38833;51.142;-0.974;2023-07-22T09:20:23;99666.60;;;25.20;32.10
44313;BME280;38833;51.142;-0.974;2023-07-22T09:22:56;99665.13;;;25.47;32.05
44313;BME280;38833;51.142;-0.974;2023-07-22T09:25:30;99664.89;;;25.44;32.11
44313;BME280;38833;51.142;-0.974;2023-07-22T09:28:04;99670.59;;;25.46;32.06
44313;BME280;38833;51.142;-0.974;2023-07-22T09:30:39;99663.27;;;25.67;32.11
44313;BME280;38833;51.142;-0.974;2023-07-22T09:33:21;99663.63;;;25.17;32.10
44313;BME280;38833;51.142;-0.974;2023-07-22T09:35:55;99662.88;;;25.36;32.39
44313;BME280;38833;51.142;-0.974;2023-07-22T09:38:29;99658.26;;;25.44;32.46
44313;BME280;38833;51.142;-0.974;2023-07-22T09:41:02;99655.99;;;25.34;32.67
44313;BME280;38833;51.142;-0.974;2023-07-22T09:43:37;99661.57;;;25.30;32.89
44313;BME280;38833;51.142;-0.974;2023-07-22T09:46:11;99661.08;;;25.20;33.12
44313;BME280;38833;51.142;-0.974;2023-07-22T09:48:45;99657.15;;;25.22;33.15
44313;BME280;38833;51.142;-0.974;2023-07-22T09:51:18;99660.23;;;25.24;33.26
44313;BME280;38833;51.142;-0.974;2023-07-22T09:54:00;99659.34;;;25.16;33.18
44313;BME280;38833;51.142;-0.974;2023-07-22T09:56:44;99653.47;;;25.22;33.21
44313;BME280;38833;51.142;-0.974;2023-07-22T09:59:18;99653.96;;;25.26;33.19
44313;BME280;38833;51.142;-0.974;2023-07-22T10:01:52;99660.85;;;25.23;33.21
44313;BME280;38833;51.142;-0.974;2023-07-22T10:04:29;99655.62;;;25.21;33.25
44313;BME280;38833;51.142;-0.974;2023-07-22T10:07:06;99664.17;;;25.18;33.29
44313;BME280;38833;51.142;-0.974;2023-07-22T10:09:41;99658.32;;;25.25;33.37
44313;BME280;38833;51.142;-0.974;2023-07-22T10:12:15;99666.91;;;25.36;33.27
44313;BME280;38833;51.142;-0.974;2023-07-22T10:14:49;99664.44;;;25.24;32.86
44313;BME280;38833;51.142;-0.974;2023-07-22T10:17:24;99662.52;;;25.15;33.38
44313;BME280;38833;51.142;-0.974;2023-07-22T10:19:58;99666.57;;;25.32;33.15
44313;BME280;38833;51.142;-0.974;2023-07-22T10:22:35;99666.09;;;25.65;33.28
44313;BME280;38833;51.142;-0.974;2023-07-22T10:25:11;99674.37;;;25.20;33.33
44313;BME280;38833;51.142;-0.974;2023-07-22T10:27:45;99674.16;;;25.26;33.26
44313;BME280;38833;51.142;-0.974;2023-07-22T10:30:19;99673.49;;;25.27;33.27
44313;BME280;38833;51.142;-0.974;2023-07-22T10:32:53;99670.63;;;25.29;33.26
44313;BME280;38833;51.142;-0.974;2023-07-22T10:35:41;99679.20;;;25.30;33.05
44313;BME280;38833;51.142;-0.974;2023-07-22T10:38:15;99675.24;;;25.24;33.29
44313;BME280;38833;51.142;-0.974;2023-07-22T10:40:50;99680.80;;;25.25;33.17
44313;BME280;38833;51.142;-0.974;2023-07-22T10:43:25;99674.32;;;25.24;33.13
44313;BME280;38833;51.142;-0.974;2023-07-22T10:46:05;99674.76;;;25.19;33.19
44313;BME280;38833;51.142;-0.974;2023-07-22T10:48:40;99667.59;;;25.11;33.24
44313;BME280;38833;51.142;-0.974;2023-07-22T10:51:15;99671.92;;;24.97;33.38
44313;BME280;38833;51.142;-0.974;2023-07-22T10:53:49;99672.72;;;25.10;33.50
44313;BME280;38833;51.142;-0.974;2023-07-22T10:56:22;99670.41;;;24.82;33.54
44313;BME280;38833;51.142;-0.974;2023-07-22T10:58:59;99664.42;;;24.69;33.65
44313;BME280;38833;51.142;-0.974;2023-07-22T11:01:35;99666.56;;;24.95;33.60
44313;BME280;38833;51.142;-0.974;2023-07-22T11:04:11;99664.20;;;24.76;33.52
44313;BME280;38833;51.142;-0.974;2023-07-22T11:06:53;99661.47;;;24.66;33.65
44313;BME280;38833;51.142;-0.974;2023-07-22T11:09:38;99658.45;;;24.67;33.61
44313;BME280;38833;51.142;-0.974;2023-07-22T11:12:14;99650.48;;;24.67;33.62
44313;BME280;38833;51.142;-0.974;2023-07-22T11:14:50;99646.35;;;25.10;33.65
44313;BME280;38833;51.142;-0.974;2023-07-22T11:17:29;99646.65;;;24.87;33.57
44313;BME280;38833;51.142;-0.974;2023-07-22T11:20:03;99641.96;;;24.84;33.81
44313;BME280;38833;51.142;-0.974;2023-07-22T11:22:39;99639.96;;;24.86;33.83
44313;BME280;38833;51.142;-0.974;2023-07-22T11:25:18;99639.22;;;24.85;33.82
44313;BME280;38833;51.142;-0.974;2023-07-22T11:27:53;99639.66;;;24.84;33.79
44313;BME280;38833;51.142;-0.974;2023-07-22T11:30:27;99635.26;;;24.82;33.88
44313;BME280;38833;51.142;-0.974;2023-07-22T11:33:00;99632.26;;;24.91;33.79
44313;BME280;38833;51.142;-0.974;2023-07-22T11:35:34;99624.88;;;24.91;33.80
44313;BME280;38833;51.142;-0.974;2023-07-22T11:38:08;99626.80;;;25.20;33.73
44313;BME280;38833;51.142;-0.974;2023-07-22T11:40:46;99622.97;;;25.12;33.81
44313;BME280;38833;51.142;-0.974;2023-07-22T11:43:20;99616.63;;;25.12;33.90
44313;BME280;38833;51.142;-0.974;2023-07-22T11:45:54;99607.60;;;24.86;33.89
44313;BME280;38833;51.142;-0.974;2023-07-22T11:48:27;99598.06;;;25.32;33.90
44313;BME280;38833;51.142;-0.974;2023-07-22T11:51:01;99600.06;;;24.86;34.08
44313;BME280;38833;51.142;-0.974;2023-07-22T11:53:35;99596.28;;;25.15;34.28
44313;BME280;38833;51.142;-0.974;2023-07-22T11:56:08;99596.75;;;25.12;34.24
44313;BME280;38833;51.142;-0.974;2023-07-22T11:58:42;99590.66;;;25.18;34.22
44313;BME280;38833;51.142;-0.974;2023-07-22T12:01:15;99589.13;;;25.45;34.33
44313;BME280;38833;51.142;-0.974;2023-07-22T12:03:54;99586.78;;;25.26;34.38
44313;BME280;38833;51.142;-0.974;2023-07-22T12:06:28;99578.87;;;25.24;34.42
44313;BME280;38833;51.142;-0.974;2023-07-22T12:09:02;99572.92;;;25.28;34.63
44313;BME280;38833;51.142;-0.974;2023-07-22T12:11:35;99566.83;;;25.27;34.96
44313;BME280;38833;51.142;-0.974;2023-07-22T12:14:10;99578.63;;;25.24;34.88
44313;BME280;38833;51.142;-0.974;2023-07-22T12:16:44;99572.10;;;25.51;35.12
44313;BME280;38833;51.142;-0.974;2023-07-22T12:19:17;99571.35;;;25.32;35.04
44313;BME280;38833;51.142;-0.974;2023-07-22T12:21:50;99575.51;;;25.26;35.26
44313;BME280;38833;51.142;-0.974;2023-07-22T12:24:24;99572.90;;;25.19;35.59
44313;BME280;38833;51.142;-0.974;2023-07-22T12:26:57;99573.21;;;25.57;35.85
44313;BME280;38833;51.142;-0.974;2023-07-22T12:29:31;99575.67;;;25.14;36.08
44313;BME280;38833;51.142;-0.974;2023-07-22T12:32:05;99570.96;;;25.16;35.91
44313;BME280;38833;51.142;-0.974;2023-07-22T12:34:38;99562.28;;;25.36;35.94
44313;BME280;38833;51.142;-0.974;2023-07-22T12:37:12;99557.81;;;25.34;35.96
44313;BME280;38833;51.142;-0.974;2023-07-22T12:39:45;99546.05;;;25.10;36.24
44313;BME280;38833;51.142;-0.974;2023-07-22T12:42:19;99555.81;;;25.40;36.32
44313;BME280;38833;51.142;-0.974;2023-07-22T12:44:52;99548.42;;;25.16;36.43
44313;BME280;38833;51.142;-0.974;2023-07-22T12:47:25;99546.83;;;25.05;36.60
44313;BME280;38833;51.142;-0.974;2023-07-22T12:49:59;99546.35;;;25.34;36.45
44313;BME280;38833;51.142;-0.974;2023-07-22T12:52:32;99541.62;;;25.29;36.34
44313;BME280;38833;51.142;-0.974;2023-07-22T12:55:06;99534.29;;;25.29;36.15
44313;BME280;38833;51.142;-0.974;2023-07-22T12:57:40;99533.41;;;25.41;36.63
44313;BME280;38833;51.142;-0.974;2023-07-22T13:00:13;99521.60;;;25.23;36.52
44313;BME280;38833;51.142;-0.974;2023-07-22T13:02:47;99519.28;;;25.40;36.74
44313;BME280;38833;51.142;-0.974;2023-07-22T13:05:20;99518.80;;;25.27;36.56
44313;BME280;38833;51.142;-0.974;2023-07-22T13:07:54;99520.74;;;25.43;36.52
44313;BME280;38833;51.142;-0.974;2023-07-22T13:10:28;99511.88;;;25.31;36.29
44313;BME280;38833;51.142;-0.974;2023-07-22T13:13:01;99515.79;;;25.31;36.66
44313;BME280;38833;51.142;-0.974;2023-07-22T13:15:34;99516.39;;;25.31;36.44
44313;BME280;38833;51.142;-0.974;2023-07-22T13:18:08;99513.55;;;25.50;36.74
44313;BME280;38833;51.142;-0.974;2023-07-22T13:20:41;99512.29;;;25.22;36.96
44313;BME280;38833;51.142;-0.974;2023-07-22T13:23:14;99510.40;;;25.27;37.30
44313;BME280;38833;51.142;-0.974;2023-07-22T13:25:48;99509.13;;;25.20;37.04